Time;durP1;ratioP1;P1;durP2;ratioP2;P2;SDS_P1;SDS_P2;PMS_P1;PMS_P2;Temp;Humidity;BMP_temperature;BMP_pressure;BME280_temperature;BME280_humidity;BME280_pressure;Samples;Min_cycle;Max_cycle;Signal;HPM_P1;HPM_P2
2021/12/24 00:01:34;;;;;;;19.30;8.63;;;;;;;;;;4993710;28;20062;-65
2021/12/24 00:04:00;;;;;;;15.45;7.00;;;;;;;;;;4992934;28;20053;-65
2021/12/24 00:06:26;;;;;;;23.60;8.30;;;;;;;;;;4993832;28;20019;-65
2021/12/24 00:08:55;;;;;;;20.75;8.60;;;;;;;;;;4993131;28;20364;-65
2021/12/24 00:11:21;;;;;;;17.00;7.97;;;;;;;;;;4993379;28;20046;-65
2021/12/24 00:13:50;;;;;;;17.05;8.05;;;;;;;;;;4993556;28;20031;-65
2021/12/24 00:18:51;;;;;;;16.85;7.85;;;;;;;;;;4996609;28;20026;-65
2021/12/24 00:35:21;;;;;;;23.08;9.50;;;;;;;;;;4993217;28;20035;-65
2021/12/24 00:37:48;;;;;;;19.38;8.93;;;;;;;;;;4993364;28;20054;-65
2021/12/24 00:40:18;;;;;;;27.98;10.00;;;;;;;;;;4992890;28;20030;-65
2021/12/24 00:42:49;;;;;;;19.23;9.18;;;;;;;;;;4993106;28;20490;-65
2021/12/24 00:45:17;;;;;;;25.38;9.05;;;;;;;;;;4993219;28;20030;-65
2021/12/24 00:47:44;;;;;;;15.88;8.73;;;;;;;;;;4992994;28;20455;-65
2021/12/24 00:50:14;;;;;;;19.30;8.70;;;;;;;;;;4991722;28;20057;-65
2021/12/24 00:55:10;;;;;;;17.00;7.22;;;;;;;;;;4993152;28;20490;-65
2021/12/24 00:57:38;;;;;;;13.30;5.13;;;;;;;;;;5009210;28;20034;-65
2021/12/24 01:00:06;;;;;;;12.70;3.40;;;;;;;;;;4992831;28;20146;-65
2021/12/24 01:02:33;;;;;;;9.68;3.00;;;;;;;;;;4977680;28;20042;-65
2021/12/24 01:05:00;;;;;;;10.85;2.80;;;;;;;;;;4976109;28;20053;-65
2021/12/24 01:07:26;;;;;;;7.93;2.45;;;;;;;;;;4976215;28;20394;-65
2021/12/24 01:09:52;;;;;;;12.23;2.97;;;;;;;;;;4976217;28;20030;-65
2021/12/24 01:12:20;;;;;;;8.75;2.58;;;;;;;;;;4983022;28;20077;-65
2021/12/24 01:14:48;;;;;;;11.40;2.60;;;;;;;;;;4995367;28;20530;-65
2021/12/24 01:19:52;;;;;;;6.20;2.10;;;;;;;;;;4995297;28;20038;-65
2021/12/24 01:23:10;;;;;;;6.47;1.95;;;;;;;;;;4995417;28;20030;-65
2021/12/24 01:38:36;;;;;;;5.68;1.77;;;;;;;;;;4991971;28;20438;-65
2021/12/24 01:41:07;;;;;;;11.77;2.63;;;;;;;;;;4975611;28;20027;-65
2021/12/24 01:43:34;;;;;;;7.57;1.60;;;;;;;;;;4975260;28;20030;-65
2021/12/24 01:46:01;;;;;;;8.00;1.65;;;;;;;;;;4984348;28;20065;-65
2021/12/24 01:48:28;;;;;;;6.57;1.70;;;;;;;;;;4994982;28;20176;-65
2021/12/24 01:50:55;;;;;;;10.15;1.52;;;;;;;;;;4994620;28;20156;-65
2021/12/24 01:53:26;;;;;;;8.68;2.10;;;;;;;;;;4994521;28;20042;-65
2021/12/24 01:55:53;;;;;;;4.78;1.48;;;;;;;;;;5011008;28;20502;-65
2021/12/24 01:58:25;;;;;;;7.40;2.30;;;;;;;;;;4994528;28;20572;-65
2021/12/24 02:00:52;;;;;;;10.93;2.65;;;;;;;;;;5010750;28;20037;-65
2021/12/24 02:03:19;;;;;;;10.60;1.95;;;;;;;;;;4994326;28;20026;-65
2021/12/24 02:05:45;;;;;;;9.93;2.58;;;;;;;;;;5010687;28;20034;-65
2021/12/24 02:08:12;;;;;;;13.70;2.25;;;;;;;;;;4993851;28;20027;-65
2021/12/24 02:10:39;;;;;;;10.82;1.80;;;;;;;;;;5010881;28;20065;-65
2021/12/24 02:13:07;;;;;;;8.93;1.83;;;;;;;;;;4993833;28;20109;-65
2021/12/24 02:28:57;;;;;;;13.02;2.78;;;;;;;;;;4993546;28;20048;-65
2021/12/24 02:31:25;;;;;;;10.98;2.30;;;;;;;;;;4994045;28;20037;-65
2021/12/24 02:33:51;;;;;;;14.95;2.75;;;;;;;;;;5010122;28;20030;-65
2021/12/24 02:36:18;;;;;;;17.88;2.90;;;;;;;;;;4994690;28;20121;-65
2021/12/24 02:38:45;;;;;;;15.48;2.05;;;;;;;;;;4995367;28;20469;-65
2021/12/24 02:41:11;;;;;;;15.90;2.47;;;;;;;;;;4994979;28;20506;-65
2021/12/24 02:43:38;;;;;;;11.35;2.17;;;;;;;;;;5008421;28;20026;-65
2021/12/24 02:46:11;;;;;;;12.57;2.50;;;;;;;;;;4993720;28;20030;-65
2021/12/24 02:54:08;;;;;;;10.63;2.08;;;;;;;;;;4993786;28;20030;-65
2021/12/24 02:56:36;;;;;;;8.93;2.17;;;;;;;;;;4992663;28;20029;-65
2021/12/24 02:59:08;;;;;;;12.70;2.17;;;;;;;;;;4993730;28;20614;-65
2021/12/24 03:01:36;;;;;;;9.95;1.85;;;;;;;;;;4994163;28;20482;-65
2021/12/24 03:04:03;;;;;;;10.30;1.88;;;;;;;;;;4991854;28;20023;-65
2021/12/24 03:06:31;;;;;;;16.52;2.40;;;;;;;;;;5009346;28;20034;-65
2021/12/24 03:08:57;;;;;;;10.20;1.92;;;;;;;;;;4992204;28;20050;-65
2021/12/24 03:11:24;;;;;;;11.23;1.90;;;;;;;;;;4994100;28;20058;-65
2021/12/24 03:13:51;;;;;;;11.18;2.50;;;;;;;;;;4994226;28;20027;-65
2021/12/24 03:16:17;;;;;;;14.18;2.40;;;;;;;;;;4992394;28;20436;-65
2021/12/24 03:18:45;;;;;;;10.20;2.38;;;;;;;;;;4992509;28;20525;-65
2021/12/24 03:21:26;;;;;;;14.77;2.20;;;;;;;;;;5001152;28;20030;-65
2021/12/24 03:26:28;;;;;;;16.67;2.63;;;;;;;;;;4993545;28;20110;-65
2021/12/24 03:28:55;;;;;;;14.45;2.60;;;;;;;;;;4992665;28;20033;-65
2021/12/24 03:31:21;;;;;;;11.77;2.15;;;;;;;;;;4993110;28;20061;-65
2021/12/24 03:33:48;;;;;;;13.60;2.00;;;;;;;;;;4992807;28;20038;-65
2021/12/24 03:36:15;;;;;;;8.07;2.08;;;;;;;;;;5008037;28;20065;-65
2021/12/24 03:38:42;;;;;;;12.15;1.77;;;;;;;;;;5014053;28;20084;-65
2021/12/24 03:41:08;;;;;;;14.90;2.58;;;;;;;;;;5010337;28;20080;-65
2021/12/24 03:43:34;;;;;;;13.02;2.17;;;;;;;;;;4994214;28;20026;-65
2021/12/24 03:46:05;;;;;;;19.48;2.30;;;;;;;;;;4992317;28;20109;-65
2021/12/24 03:48:46;;;;;;;11.13;2.33;;;;;;;;;;5008426;28;20089;-65
2021/12/24 03:56:37;;;;;;;16.30;2.47;;;;;;;;;;4993649;28;20038;-65
2021/12/24 03:59:05;;;;;;;18.67;2.40;;;;;;;;;;4992190;28;20030;-65
2021/12/24 04:01:57;;;;;;;5.65;1.60;;;;;;;;;;4990374;28;20121;-65
2021/12/24 04:04:46;;;;;;;8.23;2.30;;;;;;;;;;4971563;28;20026;-65
2021/12/24 04:07:24;;;;;;;15.35;2.25;;;;;;;;;;4971070;28;20042;-65
2021/12/24 04:10:04;;;;;;;10.40;1.80;;;;;;;;;;4971197;28;20455;-65
2021/12/24 04:12:59;;;;;;;13.25;1.75;;;;;;;;;;4971672;28;20034;-65
2021/12/24 04:15:25;;;;;;;7.55;2.15;;;;;;;;;;4970973;28;20045;-65
2021/12/24 04:17:51;;;;;;;12.43;1.88;;;;;;;;;;4971668;28;20027;-65
2021/12/24 04:25:47;;;;;;;16.05;2.22;;;;;;;;;;4955126;28;20090;-65
2021/12/24 04:28:13;;;;;;;22.08;2.40;;;;;;;;;;4970432;28;20070;-65
2021/12/24 04:30:46;;;;;;;9.05;2.03;;;;;;;;;;4971790;28;20086;-65
2021/12/24 04:33:31;;;;;;;15.95;2.17;;;;;;;;;;4971536;28;20038;-65
2021/12/24 05:03:28;;;;;;;10.40;2.10;;;;;;;;;;4932903;29;20027;-65
2021/12/24 05:06:07;;;;;;;16.10;2.00;;;;;;;;;;4933025;29;20385;-65
2021/12/24 05:08:50;;;;;;;15.32;2.40;;;;;;;;;;4934427;29;20036;-65
2021/12/24 05:11:17;;;;;;;8.93;1.90;;;;;;;;;;4951944;28;20055;-65
2021/12/24 05:13:44;;;;;;;12.27;1.55;;;;;;;;;;4952128;28;20488;-65
2021/12/24 05:16:37;;;;;;;13.95;1.90;;;;;;;;;;4970948;28;20361;-65
2021/12/24 05:22:40;;;;;;;6.43;1.85;;;;;;;;;;4913541;29;20080;-65
2021/12/24 05:25:12;;;;;;;10.32;1.92;;;;;;;;;;4913919;29;20505;-65
2021/12/24 05:27:38;;;;;;;10.73;2.47;;;;;;;;;;4913686;29;20028;-65
2021/12/24 05:30:05;;;;;;;11.15;1.73;;;;;;;;;;4898094;29;20036;-65
2021/12/24 05:32:31;;;;;;;14.52;2.08;;;;;;;;;;4915441;29;20067;-65
2021/12/24 05:34:57;;;;;;;11.20;1.90;;;;;;;;;;4932807;29;20036;-65
2021/12/24 05:37:23;;;;;;;14.68;1.95;;;;;;;;;;4931810;29;20050;-65
2021/12/24 05:39:49;;;;;;;8.13;1.80;;;;;;;;;;4932799;29;20036;-65
2021/12/24 05:42:24;;;;;;;9.37;1.43;;;;;;;;;;4932329;29;20068;-65
2021/12/24 05:44:50;;;;;;;5.90;1.90;;;;;;;;;;4935433;29;20086;-65
2021/12/24 05:47:36;;;;;;;10.50;1.58;;;;;;;;;;4949364;29;20027;-65
2021/12/24 05:50:06;;;;;;;12.43;2.03;;;;;;;;;;4947582;29;20082;-65
2021/12/24 05:52:52;;;;;;;7.97;1.70;;;;;;;;;;4935598;29;20539;-65
2021/12/24 05:55:48;;;;;;;10.80;3.25;;;;;;;;;;4961787;28;20383;-65
2021/12/24 05:58:20;;;;;;;8.73;2.40;;;;;;;;;;5010898;28;20027;-65
2021/12/24 06:00:48;;;;;;;16.48;2.20;;;;;;;;;;5010853;28;20026;-65
2021/12/24 06:03:15;;;;;;;7.57;1.88;;;;;;;;;;4994509;28;20169;-65
2021/12/24 06:05:42;;;;;;;7.45;2.15;;;;;;;;;;4995240;28;20030;-65
2021/12/24 06:08:08;;;;;;;14.02;2.28;;;;;;;;;;4990382;28;20033;-65
2021/12/24 06:10:34;;;;;;;11.35;3.00;;;;;;;;;;4993931;28;20049;-65
2021/12/24 06:13:01;;;;;;;9.02;1.70;;;;;;;;;;4994306;28;20014;-65
2021/12/24 06:15:27;;;;;;;10.73;2.45;;;;;;;;;;4993773;28;20109;-65
2021/12/24 06:17:55;;;;;;;8.52;2.00;;;;;;;;;;4993982;28;20398;-65
2021/12/24 06:20:22;;;;;;;8.57;1.80;;;;;;;;;;4993201;28;20037;-65
2021/12/24 06:22:48;;;;;;;12.20;2.00;;;;;;;;;;4994068;28;20030;-65
2021/12/24 06:25:15;;;;;;;6.72;3.83;;;;;;;;;;4993779;28;20030;-65
2021/12/24 06:27:41;;;;;;;4.70;1.70;;;;;;;;;;4993724;28;20097;-65
2021/12/24 06:30:08;;;;;;;7.35;1.80;;;;;;;;;;4993997;28;20064;-65
2021/12/24 06:32:34;;;;;;;10.70;2.15;;;;;;;;;;4993387;28;20376;-65
2021/12/24 06:35:00;;;;;;;5.10;1.73;;;;;;;;;;4993500;28;20034;-65
2021/12/24 06:37:26;;;;;;;7.00;1.65;;;;;;;;;;4993254;28;20150;-65
2021/12/24 06:39:54;;;;;;;8.73;1.85;;;;;;;;;;4993698;28;20518;-65
2021/12/24 06:42:20;;;;;;;8.35;1.85;;;;;;;;;;4991040;28;20023;-65
2021/12/24 06:44:46;;;;;;;17.67;2.42;;;;;;;;;;4993699;28;20014;-65
2021/12/24 06:47:12;;;;;;;11.85;2.95;;;;;;;;;;4993266;28;20033;-65
2021/12/24 06:49:39;;;;;;;9.00;2.50;;;;;;;;;;4993202;28;20030;-65
2021/12/24 06:52:05;;;;;;;9.30;2.35;;;;;;;;;;4993500;28;20026;-65
2021/12/24 06:54:33;;;;;;;7.00;2.45;;;;;;;;;;4992814;28;20101;-65
2021/12/24 06:57:01;;;;;;;7.75;2.20;;;;;;;;;;4991541;28;20494;-65
2021/12/24 06:59:28;;;;;;;10.48;2.20;;;;;;;;;;5008083;28;20042;-65
2021/12/24 07:01:59;;;;;;;8.65;2.17;;;;;;;;;;4992080;28;20050;-65
2021/12/24 07:04:25;;;;;;;5.53;2.10;;;;;;;;;;4992449;28;20505;-65
2021/12/24 07:06:51;;;;;;;9.43;2.47;;;;;;;;;;4992908;28;20061;-65
2021/12/24 07:09:17;;;;;;;8.25;3.05;;;;;;;;;;4993263;28;20026;-65
2021/12/24 07:11:43;;;;;;;12.75;2.53;;;;;;;;;;4992519;28;20037;-65
2021/12/24 07:14:09;;;;;;;12.00;2.08;;;;;;;;;;4992794;28;20034;-65
2021/12/24 07:16:35;;;;;;;5.47;1.70;;;;;;;;;;4992769;28;20387;-65
2021/12/24 07:19:02;;;;;;;5.50;2.28;;;;;;;;;;4992622;28;20069;-65
2021/12/24 07:21:28;;;;;;;9.02;2.20;;;;;;;;;;4992633;28;20034;-65
2021/12/24 07:23:55;;;;;;;5.35;2.25;;;;;;;;;;4992672;28;20061;-65
2021/12/24 07:26:21;;;;;;;9.02;2.17;;;;;;;;;;4992836;28;20014;-65
2021/12/24 07:28:47;;;;;;;6.13;1.80;;;;;;;;;;4992564;28;20022;-65
2021/12/24 07:31:14;;;;;;;7.13;1.80;;;;;;;;;;4992480;28;20043;-65
2021/12/24 07:33:40;;;;;;;6.07;3.05;;;;;;;;;;4992486;28;20440;-65
2021/12/24 07:36:06;;;;;;;11.43;2.80;;;;;;;;;;4992516;28;20042;-65
2021/12/24 07:38:32;;;;;;;12.52;2.25;;;;;;;;;;4992017;28;20487;-65
2021/12/24 07:40:59;;;;;;;13.75;2.20;;;;;;;;;;4990206;28;20451;-65
2021/12/24 07:43:25;;;;;;;11.98;2.63;;;;;;;;;;4987001;28;20065;-65
2021/12/24 07:45:54;;;;;;;10.63;2.45;;;;;;;;;;4990255;28;20026;-65
2021/12/24 07:48:27;;;;;;;17.50;3.10;;;;;;;;;;4990148;28;20041;-65
2021/12/24 07:53:20;;;;;;;13.38;4.05;;;;;;;;;;4989873;28;20041;-65
2021/12/24 07:55:47;;;;;;;14.32;3.45;;;;;;;;;;4989824;28;20434;-65
2021/12/24 07:58:14;;;;;;;10.75;3.72;;;;;;;;;;4981166;28;20665;-63
2021/12/24 08:00:41;;;;;;;18.65;5.88;;;;;;;;;;4980524;28;20159;-72
2021/12/24 08:03:07;;;;;;;10.73;2.85;;;;;;;;;;4978130;28;20042;-72
2021/12/24 08:05:38;;;;;;;10.73;2.30;;;;;;;;;;4978115;28;20683;-77
2021/12/24 08:08:04;;;;;;;14.52;3.13;;;;;;;;;;4984795;28;20022;-73
2021/12/24 08:10:31;;;;;;;6.95;1.92;;;;;;;;;;4982064;28;20059;-72
2021/12/24 08:12:57;;;;;;;9.25;1.80;;;;;;;;;;4981974;28;20042;-72
2021/12/24 08:15:23;;;;;;;8.93;2.13;;;;;;;;;;4981436;28;20026;-72
2021/12/24 08:17:49;;;;;;;9.77;1.98;;;;;;;;;;4978129;28;20506;-76
2021/12/24 08:20:21;;;;;;;7.65;1.85;;;;;;;;;;4993160;28;20030;-78
2021/12/24 08:22:49;;;;;;;13.15;2.10;;;;;;;;;;4977483;28;20030;-76
2021/12/24 08:25:15;;;;;;;9.95;2.63;;;;;;;;;;4993870;28;20103;-64
2021/12/24 08:27:41;;;;;;;23.05;4.72;;;;;;;;;;4979049;28;20045;-64
2021/12/24 08:30:08;;;;;;;13.40;2.47;;;;;;;;;;4981039;28;20035;-64
2021/12/24 08:32:38;;;;;;;7.57;2.22;;;;;;;;;;4983968;28;20514;-64
2021/12/24 08:35:08;;;;;;;9.63;1.90;;;;;;;;;;4982327;28;21696;-64
2021/12/24 08:37:34;;;;;;;9.07;2.28;;;;;;;;;;4978840;28;20514;-64
2021/12/24 08:40:00;;;;;;;6.25;1.92;;;;;;;;;;4975844;28;20038;-64
2021/12/24 08:42:26;;;;;;;8.95;1.70;;;;;;;;;;4983671;28;20442;-65
2021/12/24 08:44:52;;;;;;;11.88;2.38;;;;;;;;;;4977604;28;20022;-63
2021/12/24 08:47:19;;;;;;;7.47;1.77;;;;;;;;;;4989992;28;20033;-64
2021/12/24 08:49:45;;;;;;;9.65;2.17;;;;;;;;;;4988815;28;20566;-64
2021/12/24 08:52:11;;;;;;;7.03;1.73;;;;;;;;;;4989291;28;20037;-64
2021/12/24 08:54:37;;;;;;;11.93;2.20;;;;;;;;;;4990940;28;20050;-64
2021/12/24 08:57:03;;;;;;;12.23;2.03;;;;;;;;;;4989447;28;20037;-64
2021/12/24 08:59:30;;;;;;;9.77;2.03;;;;;;;;;;4989179;28;20037;-64
2021/12/24 09:01:58;;;;;;;6.32;1.60;;;;;;;;;;4989854;28;20426;-64
2021/12/24 09:04:24;;;;;;;4.85;1.75;;;;;;;;;;4989934;28;20514;-64
2021/12/24 09:06:51;;;;;;;5.32;1.67;;;;;;;;;;4989235;28;20030;-64
2021/12/24 09:09:17;;;;;;;7.72;1.63;;;;;;;;;;4990614;28;20073;-64
2021/12/24 09:11:44;;;;;;;9.15;1.83;;;;;;;;;;4989076;28;20445;-64
2021/12/24 09:14:10;;;;;;;7.25;2.17;;;;;;;;;;4988889;28;20042;-64
2021/12/24 09:16:37;;;;;;;10.00;1.60;;;;;;;;;;4991103;28;20030;-64
2021/12/24 09:19:08;;;;;;;8.88;1.77;;;;;;;;;;4991942;28;20049;-64
2021/12/24 09:21:35;;;;;;;8.45;2.15;;;;;;;;;;4992057;28;20034;-63
2021/12/24 09:24:08;;;;;;;10.32;1.70;;;;;;;;;;4987276;28;20070;-64
2021/12/24 09:26:36;;;;;;;3.15;1.70;;;;;;;;;;4993155;28;20069;-63
2021/12/24 09:29:03;;;;;;;4.82;1.70;;;;;;;;;;4991922;28;20022;-64
2021/12/24 09:31:29;;;;;;;9.82;2.22;;;;;;;;;;4993174;28;20109;-63
2021/12/24 09:33:55;;;;;;;4.10;1.83;;;;;;;;;;4992696;28;20034;-62
2021/12/24 09:36:28;;;;;;;7.47;2.00;;;;;;;;;;4991503;28;20511;-62
2021/12/24 09:38:56;;;;;;;5.63;1.65;;;;;;;;;;4993272;28;20042;-62
2021/12/24 09:41:22;;;;;;;10.63;2.20;;;;;;;;;;4994252;28;20044;-62
2021/12/24 09:43:48;;;;;;;7.88;2.47;;;;;;;;;;4992465;28;20089;-62
2021/12/24 09:46:14;;;;;;;11.50;2.28;;;;;;;;;;4993856;28;20026;-62
2021/12/24 09:48:40;;;;;;;12.88;1.70;;;;;;;;;;4994492;28;20030;-62
2021/12/24 09:51:07;;;;;;;8.48;2.13;;;;;;;;;;4994000;28;20089;-62
2021/12/24 09:53:36;;;;;;;7.53;1.73;;;;;;;;;;4993158;28;20367;-62
2021/12/24 09:56:02;;;;;;;9.77;1.80;;;;;;;;;;4994411;28;20077;-62
2021/12/24 09:58:29;;;;;;;12.23;2.88;;;;;;;;;;4993769;28;20498;-62
2021/12/24 10:00:55;;;;;;;7.28;2.20;;;;;;;;;;4993712;28;20049;-66
2021/12/24 10:03:28;;;;;;;9.05;2.05;;;;;;;;;;4993237;28;20398;-62
2021/12/24 10:05:55;;;;;;;9.40;2.00;;;;;;;;;;4994428;28;20073;-62
2021/12/24 10:08:22;;;;;;;6.82;1.60;;;;;;;;;;4993851;28;20026;-64
2021/12/24 10:10:51;;;;;;;5.35;2.00;;;;;;;;;;4993603;28;20026;-59
2021/12/24 10:13:34;;;;;;;8.02;1.80;;;;;;;;;;4993602;28;20344;-61
2021/12/24 10:16:03;;;;;;;14.55;4.00;;;;;;;;;;4989914;28;20026;-62
2021/12/24 10:18:49;;;;;;;8.25;2.17;;;;;;;;;;4994899;28;20026;-62
2021/12/24 10:21:22;;;;;;;4.30;1.83;;;;;;;;;;4993713;28;20038;-62
2021/12/24 10:23:50;;;;;;;10.55;2.10;;;;;;;;;;4995129;28;20030;-62
2021/12/24 10:26:18;;;;;;;11.18;1.92;;;;;;;;;;4994004;28;20036;-62
2021/12/24 10:28:55;;;;;;;9.93;2.28;;;;;;;;;;4994595;28;20030;-62
2021/12/24 10:31:23;;;;;;;8.85;2.10;;;;;;;;;;4992173;28;20038;-62
2021/12/24 10:34:09;;;;;;;10.25;2.55;;;;;;;;;;4994752;28;20513;-62
2021/12/24 10:36:58;;;;;;;12.90;2.83;;;;;;;;;;4975133;28;20041;-62
2021/12/24 10:39:27;;;;;;;9.80;2.40;;;;;;;;;;4994255;28;20076;-62
2021/12/24 10:41:53;;;;;;;8.35;2.33;;;;;;;;;;4993886;28;20038;-62
2021/12/24 10:44:22;;;;;;;21.45;2.45;;;;;;;;;;4992772;28;20491;-62
2021/12/24 10:46:57;;;;;;;10.02;2.25;;;;;;;;;;4994242;28;20026;-62
2021/12/24 10:54:54;;;;;;;11.73;2.10;;;;;;;;;;4989874;28;20081;-61
2021/12/24 10:57:23;;;;;;;18.50;2.90;;;;;;;;;;4991838;28;20022;-61
2021/12/24 10:59:50;;;;;;;12.32;2.15;;;;;;;;;;4993887;28;20026;-61
2021/12/24 11:02:17;;;;;;;14.90;2.88;;;;;;;;;;4994033;28;20026;-61
2021/12/24 11:04:43;;;;;;;13.70;3.40;;;;;;;;;;4993365;28;20022;-61
2021/12/24 11:07:27;;;;;;;11.27;2.28;;;;;;;;;;4993243;28;20050;-63
2021/12/24 11:10:06;;;;;;;13.90;2.65;;;;;;;;;;4992664;28;20395;-62
2021/12/24 11:12:36;;;;;;;8.68;3.05;;;;;;;;;;4992908;28;20141;-62
2021/12/24 11:15:02;;;;;;;8.00;2.20;;;;;;;;;;4993324;28;20061;-61
2021/12/24 11:17:38;;;;;;;9.00;2.40;;;;;;;;;;4993747;28;20034;-62
2021/12/24 11:20:09;;;;;;;14.48;3.28;;;;;;;;;;4991410;28;20037;-61
2021/12/24 11:22:55;;;;;;;10.82;2.55;;;;;;;;;;4992098;28;20034;-62
2021/12/24 11:25:22;;;;;;;21.50;5.10;;;;;;;;;;4992910;28;20057;-61
2021/12/24 11:27:49;;;;;;;15.02;4.25;;;;;;;;;;4993825;28;20026;-61
2021/12/24 11:30:15;;;;;;;20.30;3.65;;;;;;;;;;4993552;28;20114;-61
2021/12/24 11:32:42;;;;;;;15.50;3.20;;;;;;;;;;4990926;28;20038;-61
2021/12/24 11:35:08;;;;;;;15.15;2.20;;;;;;;;;;4992344;28;20450;-61
2021/12/24 11:37:34;;;;;;;11.30;2.53;;;;;;;;;;4993250;28;20050;-62
2021/12/24 11:40:02;;;;;;;13.60;2.47;;;;;;;;;;4993034;28;20517;-61
2021/12/24 11:42:32;;;;;;;12.43;2.83;;;;;;;;;;4986312;28;20073;-61
2021/12/24 11:44:59;;;;;;;11.55;2.38;;;;;;;;;;4991385;28;20049;-61
2021/12/24 11:47:25;;;;;;;14.77;2.83;;;;;;;;;;4991805;28;20407;-61
2021/12/24 11:49:51;;;;;;;9.05;2.80;;;;;;;;;;4988515;28;20022;-62
2021/12/24 11:52:17;;;;;;;17.92;3.28;;;;;;;;;;4991859;28;20023;-62
2021/12/24 11:54:44;;;;;;;11.73;2.78;;;;;;;;;;4991151;28;20037;-61
2021/12/24 11:57:20;;;;;;;13.20;2.88;;;;;;;;;;4992648;28;20034;-61
2021/12/24 11:59:47;;;;;;;11.27;2.47;;;;;;;;;;4990687;28;20034;-62
2021/12/24 12:02:31;;;;;;;10.13;3.95;;;;;;;;;;4990811;28;20061;-62
2021/12/24 12:05:13;;;;;;;11.25;2.88;;;;;;;;;;4990390;28;20026;-62
2021/12/24 12:07:39;;;;;;;9.98;3.03;;;;;;;;;;4990755;28;20432;-62
2021/12/24 12:10:07;;;;;;;15.27;3.25;;;;;;;;;;4990883;28;20052;-61
2021/12/24 12:12:34;;;;;;;15.98;2.65;;;;;;;;;;4989076;28;20494;-61
2021/12/24 12:15:20;;;;;;;11.13;3.15;;;;;;;;;;4991044;28;20030;-61
2021/12/24 12:17:53;;;;;;;13.75;3.53;;;;;;;;;;4979561;28;20034;-61
2021/12/24 12:20:49;;;;;;;8.23;2.67;;;;;;;;;;4987019;28;20037;-61
2021/12/24 12:23:43;;;;;;;20.23;6.03;;;;;;;;;;4990206;28;20034;-61
2021/12/24 12:26:48;;;;;;;10.18;2.20;;;;;;;;;;4990385;28;20026;-61
2021/12/24 12:29:31;;;;;;;8.45;1.70;;;;;;;;;;4917975;29;20028;-61
2021/12/24 12:32:07;;;;;;;3.80;1.60;;;;;;;;;;4910860;29;20320;-61
2021/12/24 12:34:39;;;;;;;6.60;1.52;;;;;;;;;;4908777;29;20048;-61
2021/12/24 12:37:12;;;;;;;5.65;1.17;;;;;;;;;;4904606;29;20064;-61
2021/12/24 12:39:38;;;;;;;10.38;1.50;;;;;;;;;;4910928;29;20075;-61
2021/12/24 12:42:05;;;;;;;11.25;2.20;;;;;;;;;;4907434;29;20028;-64
2021/12/24 12:44:33;;;;;;;5.43;1.98;;;;;;;;;;4908154;29;20512;-64
2021/12/24 12:47:10;;;;;;;6.47;1.63;;;;;;;;;;4910405;29;20032;-61
2021/12/24 12:49:37;;;;;;;11.18;2.45;;;;;;;;;;4909464;29;20067;-61
2021/12/24 12:52:10;;;;;;;13.23;2.70;;;;;;;;;;4909057;29;20079;-61
2021/12/24 12:54:43;;;;;;;8.35;2.75;;;;;;;;;;4913203;29;20817;-62
2021/12/24 12:57:13;;;;;;;13.32;3.00;;;;;;;;;;4913185;29;20084;-62
2021/12/24 12:59:39;;;;;;;9.18;2.13;;;;;;;;;;4940746;28;20131;-61
2021/12/24 13:02:06;;;;;;;7.60;3.33;;;;;;;;;;4993469;28;20557;-62
2021/12/24 13:04:32;;;;;;;9.52;3.17;;;;;;;;;;4991916;28;20104;-61
2021/12/24 13:06:58;;;;;;;15.45;2.80;;;;;;;;;;4991221;28;20073;-62
2021/12/24 13:09:32;;;;;;;15.77;3.45;;;;;;;;;;4988863;28;20035;-61
2021/12/24 13:11:58;;;;;;;12.18;2.75;;;;;;;;;;4991856;28;20081;-61
2021/12/24 13:14:26;;;;;;;12.20;3.42;;;;;;;;;;4992743;28;20034;-61
2021/12/24 13:17:15;;;;;;;12.77;3.20;;;;;;;;;;4993135;28;20031;-61
2021/12/24 13:25:14;;;;;;;28.65;13.40;;;;;;;;;;4951481;29;20066;-61
2021/12/24 13:27:53;;;;;;;11.50;4.40;;;;;;;;;;4951963;29;21309;-61
2021/12/24 13:30:26;;;;;;;15.65;5.13;;;;;;;;;;4951493;29;20033;-61
2021/12/24 13:32:57;;;;;;;16.95;5.35;;;;;;;;;;4952034;29;20047;-61
2021/12/24 13:35:25;;;;;;;14.02;4.88;;;;;;;;;;4950296;29;20049;-62
2021/12/24 13:37:53;;;;;;;21.80;4.22;;;;;;;;;;4951493;28;20058;-62
2021/12/24 13:40:20;;;;;;;28.65;10.82;;;;;;;;;;4953197;28;20031;-62
2021/12/24 13:42:46;;;;;;;29.50;12.70;;;;;;;;;;4951980;28;20035;-61
2021/12/24 13:45:13;;;;;;;16.65;7.13;;;;;;;;;;4950945;28;20042;-62
2021/12/24 13:47:55;;;;;;;15.63;7.40;;;;;;;;;;4951064;28;20028;-61
2021/12/24 13:55:37;;;;;;;27.48;12.52;;;;;;;;;;4951155;28;20062;-61
2021/12/24 13:58:08;;;;;;;24.00;11.27;;;;;;;;;;4951246;28;20027;-61
2021/12/24 14:00:36;;;;;;;19.88;10.88;;;;;;;;;;4967554;28;20180;-61
2021/12/24 14:03:05;;;;;;;13.75;5.38;;;;;;;;;;4992071;28;20034;-62
2021/12/24 14:05:32;;;;;;;17.23;5.93;;;;;;;;;;4990793;28;20027;-61
2021/12/24 14:08:08;;;;;;;18.13;5.25;;;;;;;;;;5009671;28;20018;-61
2021/12/24 14:10:35;;;;;;;26.33;5.88;;;;;;;;;;4992233;28;20137;-61
2021/12/24 14:13:07;;;;;;;19.80;5.90;;;;;;;;;;4992335;28;20390;-61
2021/12/24 14:15:46;;;;;;;23.85;5.32;;;;;;;;;;4991100;28;20034;-61
2021/12/24 14:18:30;;;;;;;15.15;5.20;;;;;;;;;;4987757;28;20037;-61
2021/12/24 14:23:25;;;;;;;27.73;5.63;;;;;;;;;;4990029;28;20029;-61
2021/12/24 14:25:58;;;;;;;21.58;5.40;;;;;;;;;;4987927;28;20022;-61
2021/12/24 14:28:25;;;;;;;15.85;4.07;;;;;;;;;;4991181;28;20077;-61
2021/12/24 14:30:58;;;;;;;16.50;3.80;;;;;;;;;;4991550;28;20023;-61
2021/12/24 14:33:24;;;;;;;19.05;3.45;;;;;;;;;;4987644;28;20141;-61
2021/12/24 14:35:52;;;;;;;14.70;4.50;;;;;;;;;;4989749;28;20495;-62
2021/12/24 14:38:18;;;;;;;14.73;4.55;;;;;;;;;;4992294;28;20383;-62
2021/12/24 14:40:54;;;;;;;11.70;4.90;;;;;;;;;;4990352;28;20035;-62
2021/12/24 14:43:20;;;;;;;13.02;3.00;;;;;;;;;;4991997;28;20109;-62
2021/12/24 14:45:47;;;;;;;16.00;3.65;;;;;;;;;;4993290;28;20513;-62
2021/12/24 14:48:17;;;;;;;13.52;3.88;;;;;;;;;;4992776;28;20055;-62
2021/12/24 14:50:46;;;;;;;16.60;4.68;;;;;;;;;;4992963;28;20479;-62
2021/12/24 14:53:26;;;;;;;11.77;4.13;;;;;;;;;;4992683;28;20022;-62
2021/12/24 14:56:08;;;;;;;19.58;4.45;;;;;;;;;;4983997;28;20077;-62
2021/12/24 14:58:41;;;;;;;14.00;4.75;;;;;;;;;;4992549;28;20037;-62
2021/12/24 15:01:10;;;;;;;21.88;3.53;;;;;;;;;;4991232;28;20030;-62
2021/12/24 15:03:40;;;;;;;12.63;3.30;;;;;;;;;;4992293;28;20088;-62
2021/12/24 15:06:15;;;;;;;24.25;4.03;;;;;;;;;;4987811;28;20037;-61
2021/12/24 15:08:41;;;;;;;10.40;3.55;;;;;;;;;;4989565;28;20375;-62
2021/12/24 15:11:11;;;;;;;14.45;4.03;;;;;;;;;;4992227;28;20022;-62
2021/12/24 15:13:42;;;;;;;19.90;4.72;;;;;;;;;;5006021;28;20034;-62
2021/12/24 15:16:08;;;;;;;11.68;4.35;;;;;;;;;;4991584;28;20022;-62
2021/12/24 15:18:34;;;;;;;19.77;4.60;;;;;;;;;;4993751;28;20062;-62
2021/12/24 15:21:01;;;;;;;13.00;3.58;;;;;;;;;;4993649;28;20057;-62
2021/12/24 15:23:27;;;;;;;16.08;3.13;;;;;;;;;;4993179;28;20054;-62
2021/12/24 15:25:53;;;;;;;16.60;3.75;;;;;;;;;;4993697;28;20045;-62
2021/12/24 15:28:23;;;;;;;19.95;5.00;;;;;;;;;;4993070;28;20554;-62
2021/12/24 15:30:49;;;;;;;17.98;3.38;;;;;;;;;;4992036;28;20025;-62
2021/12/24 15:33:16;;;;;;;23.60;4.97;;;;;;;;;;4993514;28;20081;-62
2021/12/24 15:35:42;;;;;;;20.70;4.68;;;;;;;;;;4993115;28;20014;-62
2021/12/24 15:38:16;;;;;;;31.35;6.57;;;;;;;;;;5089130;28;20382;-61
2021/12/24 15:40:42;;;;;;;29.25;5.28;;;;;;;;;;5078939;28;20085;-61
2021/12/24 15:43:09;;;;;;;18.42;5.63;;;;;;;;;;5089199;28;20111;-61
2021/12/24 15:45:36;;;;;;;26.73;7.32;;;;;;;;;;5075291;28;20436;-61
2021/12/24 15:48:03;;;;;;;72.60;24.80;;;;;;;;;;5070688;28;20116;-61
2021/12/24 15:50:29;;;;;;;45.28;15.75;;;;;;;;;;5077996;28;20027;-61
2021/12/24 15:52:55;;;;;;;25.45;10.38;;;;;;;;;;5069213;28;20023;-61
2021/12/24 15:55:23;;;;;;;25.83;11.93;;;;;;;;;;5072487;28;20440;-61
2021/12/24 15:57:49;;;;;;;26.38;7.60;;;;;;;;;;5068765;28;20020;-61
2021/12/24 16:00:15;;;;;;;15.60;5.78;;;;;;;;;;5068013;28;20358;-61
2021/12/24 16:02:41;;;;;;;27.92;6.93;;;;;;;;;;5059842;28;20116;-61
2021/12/24 16:05:07;;;;;;;19.05;6.53;;;;;;;;;;5061392;28;20226;-61
2021/12/24 16:07:34;;;;;;;23.95;7.03;;;;;;;;;;5064803;28;20116;-61
2021/12/24 16:10:00;;;;;;;22.08;6.22;;;;;;;;;;5056783;28;20107;-61
2021/12/24 16:12:26;;;;;;;23.02;6.82;;;;;;;;;;5053809;28;20104;-61
2021/12/24 16:14:55;;;;;;;40.53;10.70;;;;;;;;;;5064631;28;20530;-61
2021/12/24 16:17:21;;;;;;;27.50;7.35;;;;;;;;;;5069952;28;20017;-61
2021/12/24 16:19:47;;;;;;;19.38;5.78;;;;;;;;;;5060647;28;20079;-61
2021/12/24 16:22:14;;;;;;;26.35;6.82;;;;;;;;;;5054281;28;20086;-61
2021/12/24 16:24:41;;;;;;;19.60;6.20;;;;;;;;;;5062876;28;20492;-61
2021/12/24 16:27:07;;;;;;;24.42;5.85;;;;;;;;;;5067027;28;20029;-61
2021/12/24 16:29:45;;;;;;;33.55;6.53;;;;;;;;;;5060927;28;20032;-61
2021/12/24 16:32:11;;;;;;;25.23;9.35;;;;;;;;;;5069994;28;20033;-61
2021/12/24 16:34:40;;;;;;;28.17;9.65;;;;;;;;;;5067377;28;20025;-61
2021/12/24 16:37:07;;;;;;;35.67;14.00;;;;;;;;;;5065800;28;20063;-61
2021/12/24 16:39:33;;;;;;;32.70;12.80;;;;;;;;;;5063800;28;20029;-61
2021/12/24 16:41:59;;;;;;;46.50;14.80;;;;;;;;;;5054747;28;20025;-61
2021/12/24 16:44:28;;;;;;;38.13;16.48;;;;;;;;;;5059910;28;20028;-60
2021/12/24 16:46:54;;;;;;;47.65;21.63;;;;;;;;;;5049625;28;20481;-61